createdAt,value
2023-01-29T00:02:15.907Z,12.68
2023-01-29T00:04:43.431Z,13.77
2023-01-29T00:07:10.980Z,12.05
2023-01-29T00:09:38.594Z,13.55
2023-01-29T00:12:07.523Z,13.90
2023-01-29T00:14:35.041Z,13.40
2023-01-29T00:17:04.095Z,13.57
2023-01-29T00:19:31.669Z,12.95
2023-01-29T00:21:59.198Z,13.30
2023-01-29T00:24:26.892Z,12.43
2023-01-29T00:26:54.413Z,12.07
2023-01-29T00:29:22.045Z,12.75
2023-01-29T00:31:50.117Z,13.20
2023-01-29T00:34:19.318Z,12.13
2023-01-29T00:36:46.847Z,12.35
2023-01-29T00:39:14.350Z,12.68
2023-01-29T00:41:59.555Z,11.48
2023-01-29T00:44:44.654Z,12.18
2023-01-29T00:47:30.887Z,13.52
2023-01-29T00:50:00.325Z,11.95
2023-01-29T00:52:28.691Z,13.40
2023-01-29T00:54:57.890Z,11.93
2023-01-29T00:57:27.514Z,11.73
2023-01-29T00:59:55.973Z,13.02
2023-01-29T01:02:42.595Z,12.07
2023-01-29T01:05:17.794Z,12.07
2023-01-29T01:07:46.410Z,11.88
2023-01-29T01:10:22.537Z,11.57
2023-01-29T01:12:53.541Z,11.27
2023-01-29T01:15:21.337Z,10.77
2023-01-29T01:17:49.628Z,11.35
2023-01-29T01:20:19.172Z,11.23
2023-01-29T01:22:46.838Z,11.23
2023-01-29T01:25:14.602Z,11.02
2023-01-29T01:27:42.626Z,9.85
2023-01-29T01:30:12.776Z,9.65
2023-01-29T01:32:41.111Z,10.15
2023-01-29T01:35:10.142Z,9.55
2023-01-29T01:37:39.357Z,9.48
2023-01-29T01:40:12.865Z,10.00
2023-01-29T01:42:40.706Z,9.40
2023-01-29T01:45:18.688Z,9.82
2023-01-29T01:47:48.897Z,9.63
2023-01-29T01:50:21.143Z,10.00
2023-01-29T01:52:53.943Z,9.15
2023-01-29T01:55:26.959Z,10.05
2023-01-29T01:57:58.057Z,10.32
2023-01-29T02:00:26.973Z,10.25
2023-01-29T02:03:13.002Z,10.55
2023-01-29T02:05:59.598Z,11.07
2023-01-29T02:08:50.988Z,10.20
2023-01-29T02:11:19.117Z,10.63
2023-01-29T02:13:47.259Z,10.23
2023-01-29T02:16:14.770Z,10.13
2023-01-29T02:18:42.277Z,11.05
2023-01-29T02:21:31.284Z,10.95
2023-01-29T02:24:33.355Z,10.85
2023-01-29T02:27:09.857Z,9.82
2023-01-29T02:29:51.440Z,10.15
2023-01-29T02:32:26.157Z,10.15
2023-01-29T02:35:21.957Z,10.82
2023-01-29T02:37:58.774Z,11.27
2023-01-29T02:40:31.986Z,10.45
2023-01-29T02:43:08.333Z,10.48
2023-01-29T02:45:45.702Z,10.85
2023-01-29T02:48:19.342Z,9.50
2023-01-29T02:50:52.350Z,12.07
2023-01-29T02:53:26.561Z,10.60
2023-01-29T02:55:59.753Z,10.88
2023-01-29T02:58:34.106Z,11.40
2023-01-29T03:01:07.568Z,9.20
2023-01-29T03:03:39.572Z,10.70
2023-01-29T03:06:18.289Z,10.27
2023-01-29T03:08:51.230Z,9.43
2023-01-29T03:11:19.287Z,11.23
2023-01-29T03:13:50.335Z,11.05
2023-01-29T03:16:24.481Z,10.57
2023-01-29T03:18:56.741Z,10.02
2023-01-29T03:21:55.197Z,10.18
2023-01-29T03:24:48.598Z,10.07
2023-01-29T03:27:37.731Z,10.32
2023-01-29T03:30:25.940Z,10.60
2023-01-29T03:33:05.379Z,10.57
2023-01-29T03:35:37.551Z,8.65
2023-01-29T03:38:09.881Z,9.90
2023-01-29T03:40:45.589Z,10.95
2023-01-29T03:43:21.685Z,9.65
2023-01-29T03:46:00.185Z,10.68
2023-01-29T03:48:35.886Z,10.95
2023-01-29T03:51:15.933Z,10.25
2023-01-29T03:53:49.615Z,9.48
2023-01-29T03:56:26.172Z,10.07
2023-01-29T03:58:59.645Z,9.95
2023-01-29T04:01:44.688Z,10.10
2023-01-29T04:04:17.938Z,11.88
2023-01-29T04:06:48.058Z,11.25
2023-01-29T04:09:20.234Z,9.80
2023-01-29T04:11:53.217Z,10.18
2023-01-29T04:14:20.996Z,10.75
2023-01-29T04:16:52.777Z,11.20
2023-01-29T04:19:26.088Z,10.93
2023-01-29T04:22:04.685Z,10.73
2023-01-29T04:24:32.623Z,9.95
2023-01-29T04:27:09.904Z,10.77
2023-01-29T04:29:48.237Z,10.90
2023-01-29T04:32:21.602Z,9.77
2023-01-29T04:35:00.822Z,10.73
2023-01-29T04:37:37.479Z,10.82
2023-01-29T04:40:19.480Z,11.10
2023-01-29T04:42:52.121Z,10.73
2023-01-29T04:45:26.889Z,10.52
2023-01-29T04:48:02.190Z,10.50
2023-01-29T04:50:39.120Z,10.25
2023-01-29T04:53:14.029Z,11.23
2023-01-29T04:55:46.453Z,10.77
2023-01-29T04:58:17.699Z,9.77
2023-01-29T05:00:48.931Z,11.95
2023-01-29T05:03:17.643Z,9.88
2023-01-29T05:05:48.999Z,10.07
2023-01-29T05:08:21.278Z,11.65
2023-01-29T05:10:51.233Z,10.75
2023-01-29T05:13:21.580Z,10.27
2023-01-29T05:15:53.420Z,10.43
2023-01-29T05:18:21.157Z,11.35
2023-01-29T05:20:51.149Z,11.20
2023-01-29T05:23:20.275Z,10.98
2023-01-29T05:25:48.700Z,11.07
2023-01-29T05:28:16.664Z,11.32
2023-01-29T05:30:46.246Z,10.77
2023-01-29T05:33:16.270Z,11.02
2023-01-29T05:35:44.321Z,10.77
2023-01-29T05:38:13.593Z,11.35
2023-01-29T05:40:42.026Z,11.93
2023-01-29T05:43:16.422Z,12.07
2023-01-29T05:45:44.083Z,12.65
2023-01-29T05:48:11.723Z,11.43
2023-01-29T05:50:39.319Z,10.75
2023-01-29T05:53:06.944Z,10.75
2023-01-29T05:55:35.911Z,12.10
2023-01-29T05:58:05.822Z,12.60
2023-01-29T06:00:33.727Z,14.18
2023-01-29T06:03:01.436Z,11.93
2023-01-29T06:05:29.154Z,11.32
2023-01-29T06:07:56.823Z,12.05
2023-01-29T06:10:25.073Z,12.18
2023-01-29T06:12:54.015Z,12.27
2023-01-29T06:15:21.685Z,12.05
2023-01-29T06:17:49.305Z,14.00
2023-01-29T06:20:17.449Z,13.93
2023-01-29T06:22:45.172Z,16.63
2023-01-29T06:25:12.781Z,11.95
2023-01-29T06:27:40.398Z,11.75
2023-01-29T06:30:10.822Z,12.45
2023-01-29T06:32:38.413Z,13.68
2023-01-29T06:35:10.728Z,12.70
2023-01-29T06:37:39.401Z,12.88
2023-01-29T06:40:08.311Z,12.27
2023-01-29T06:42:36.314Z,12.00
2023-01-29T06:45:04.119Z,11.85
2023-01-29T06:47:33.028Z,11.85
2023-01-29T06:50:00.636Z,13.82
2023-01-29T06:52:29.113Z,13.18
2023-01-29T06:54:56.885Z,11.40
2023-01-29T06:57:24.777Z,11.60
2023-01-29T06:59:52.380Z,11.35
2023-01-29T07:02:20.184Z,12.77
2023-01-29T07:04:49.080Z,13.10
2023-01-29T07:07:16.741Z,12.13
2023-01-29T07:09:44.478Z,11.93
2023-01-29T07:12:12.459Z,13.00
2023-01-29T07:14:40.147Z,13.52
2023-01-29T07:17:07.772Z,11.77
2023-01-29T07:19:35.274Z,12.63
2023-01-29T07:22:04.338Z,12.88
2023-01-29T07:24:32.079Z,12.10
2023-01-29T07:26:59.788Z,13.30
2023-01-29T07:29:27.389Z,13.20
2023-01-29T07:31:55.054Z,13.43
2023-01-29T07:34:22.601Z,12.77
2023-01-29T07:36:50.205Z,13.48
2023-01-29T07:39:19.057Z,14.30
2023-01-29T07:41:46.687Z,15.15
2023-01-29T07:44:17.462Z,13.38
2023-01-29T07:46:45.301Z,14.70
2023-01-29T07:49:13.143Z,13.27
2023-01-29T07:51:40.754Z,13.25
2023-01-29T07:54:08.236Z,14.93
2023-01-29T07:56:37.137Z,14.32
2023-01-29T07:59:04.796Z,15.10
2023-01-29T08:01:32.358Z,14.23
2023-01-29T08:03:59.984Z,14.45
2023-01-29T08:06:27.482Z,14.00
2023-01-29T08:08:55.701Z,15.00
2023-01-29T08:11:23.269Z,15.95
2023-01-29T08:13:52.615Z,14.85
2023-01-29T08:16:20.164Z,16.35
2023-01-29T08:18:48.801Z,15.82
2023-01-29T08:21:16.899Z,16.25
2023-01-29T08:23:44.483Z,16.08
2023-01-29T08:26:12.174Z,15.43
2023-01-29T08:28:39.833Z,16.45
2023-01-29T08:31:15.364Z,17.67
2023-01-29T08:33:42.909Z,16.08
2023-01-29T08:36:11.191Z,16.90
2023-01-29T08:38:38.731Z,17.73
2023-01-29T08:41:07.117Z,16.48
2023-01-29T08:43:36.809Z,17.95
2023-01-29T08:46:05.356Z,18.73
2023-01-29T08:48:34.872Z,18.40
2023-01-29T08:51:04.346Z,19.92
2023-01-29T08:53:32.301Z,19.10
2023-01-29T08:55:59.896Z,19.70
2023-01-29T08:58:27.480Z,20.88
2023-01-29T09:00:55.076Z,19.77
2023-01-29T09:03:22.714Z,21.25
2023-01-29T09:05:51.602Z,21.80
2023-01-29T09:08:19.324Z,22.27
2023-01-29T09:10:46.893Z,21.90
2023-01-29T09:13:14.442Z,22.92
2023-01-29T09:15:42.055Z,21.83
2023-01-29T09:18:09.623Z,23.02
2023-01-29T09:20:38.101Z,22.52
2023-01-29T09:23:07.761Z,23.88
2023-01-29T09:25:35.725Z,21.77
2023-01-29T09:28:03.430Z,22.63
2023-01-29T09:30:33.325Z,21.55
2023-01-29T09:33:01.569Z,21.63
2023-01-29T09:35:29.111Z,22.60
2023-01-29T09:37:56.925Z,22.65
2023-01-29T09:40:34.705Z,22.88
2023-01-29T09:43:05.170Z,22.20
2023-01-29T09:45:33.472Z,24.10
2023-01-29T09:48:05.612Z,23.85
2023-01-29T09:50:37.409Z,24.85
2023-01-29T09:53:13.377Z,22.90
2023-01-29T09:55:46.758Z,23.33
2023-01-29T09:58:21.518Z,23.80
2023-01-29T10:00:59.835Z,24.80
2023-01-29T10:03:42.798Z,23.80
2023-01-29T10:06:26.424Z,23.73
2023-01-29T10:09:30.013Z,25.95
2023-01-29T10:12:06.825Z,24.25
2023-01-29T10:14:41.226Z,25.33
2023-01-29T10:17:22.369Z,27.27
2023-01-29T10:20:04.033Z,25.77
2023-01-29T10:22:45.262Z,29.92
2023-01-29T10:25:16.640Z,27.02
2023-01-29T10:27:50.345Z,28.08
2023-01-29T10:30:25.506Z,27.40
2023-01-29T10:32:54.422Z,27.58
2023-01-29T10:35:25.383Z,28.00
2023-01-29T10:37:54.915Z,28.45
2023-01-29T10:40:24.319Z,28.25
2023-01-29T10:43:02.695Z,26.77
2023-01-29T10:45:38.582Z,26.85
2023-01-29T10:48:36.352Z,26.52
2023-01-29T10:51:16.088Z,25.38
2023-01-29T10:53:54.284Z,25.95
2023-01-29T10:56:53.253Z,25.13
2023-01-29T10:59:36.301Z,26.00
2023-01-29T11:02:04.380Z,25.42
2023-01-29T11:04:32.978Z,26.38
2023-01-29T11:07:01.203Z,27.05
2023-01-29T11:09:33.823Z,24.63
2023-01-29T11:12:05.206Z,26.42
2023-01-29T11:14:43.605Z,22.98
2023-01-29T11:17:16.969Z,23.67
2023-01-29T11:19:47.039Z,24.83
2023-01-29T11:22:16.213Z,23.77
2023-01-29T11:24:44.011Z,23.92
2023-01-29T11:27:16.426Z,22.23
2023-01-29T11:29:47.934Z,22.42
2023-01-29T11:32:26.771Z,21.50
2023-01-29T11:34:59.576Z,22.02
2023-01-29T11:37:34.581Z,20.30
2023-01-29T11:40:02.338Z,20.90
2023-01-29T11:42:33.678Z,21.38
2023-01-29T11:45:02.552Z,20.40
2023-01-29T11:47:31.595Z,20.58
2023-01-29T11:50:02.338Z,20.92
2023-01-29T11:52:38.727Z,20.48
2023-01-29T11:55:15.042Z,21.17
2023-01-29T11:57:44.191Z,19.88
2023-01-29T12:00:22.755Z,20.17
2023-01-29T12:02:55.475Z,21.23
2023-01-29T12:05:25.311Z,19.50
2023-01-29T12:07:55.483Z,20.15
2023-01-29T12:10:35.481Z,19.65
2023-01-29T12:13:07.587Z,18.77
2023-01-29T12:15:37.266Z,19.50
2023-01-29T12:18:12.795Z,19.50
2023-01-29T12:20:44.884Z,19.55
2023-01-29T12:23:28.296Z,19.88
2023-01-29T12:26:02.221Z,19.45
2023-01-29T12:28:43.552Z,20.73
2023-01-29T12:31:25.086Z,19.63
2023-01-29T12:34:00.186Z,19.80
2023-01-29T12:36:31.072Z,19.40
2023-01-29T12:38:59.544Z,19.88
2023-01-29T12:41:37.033Z,19.67
2023-01-29T12:44:12.765Z,20.77
2023-01-29T12:46:46.623Z,19.67
2023-01-29T12:49:18.217Z,21.08
2023-01-29T12:51:54.260Z,21.25
2023-01-29T12:54:28.595Z,19.55
2023-01-29T12:57:01.114Z,18.83
2023-01-29T12:59:34.058Z,19.63
2023-01-29T13:02:15.842Z,18.45
2023-01-29T13:04:47.937Z,21.10
2023-01-29T13:07:19.789Z,19.58
2023-01-29T13:09:51.698Z,19.80
2023-01-29T13:12:21.301Z,19.33
2023-01-29T13:14:53.582Z,19.38
2023-01-29T13:17:29.059Z,19.05
2023-01-29T13:19:59.313Z,19.02
2023-01-29T13:22:29.287Z,20.58
2023-01-29T13:25:04.591Z,18.92
2023-01-29T13:27:34.849Z,18.17
2023-01-29T13:30:03.148Z,18.48
2023-01-29T13:32:35.295Z,18.20
2023-01-29T13:35:06.953Z,18.65
2023-01-29T13:37:36.142Z,19.70
2023-01-29T13:40:06.754Z,19.00
2023-01-29T13:42:40.935Z,20.95
2023-01-29T13:45:10.706Z,19.98
2023-01-29T13:47:40.768Z,18.48
2023-01-29T13:50:14.248Z,19.50
2023-01-29T13:52:45.129Z,19.48
2023-01-29T13:55:26.112Z,19.50
2023-01-29T13:57:56.262Z,20.15
2023-01-29T14:01:01.289Z,19.98
2023-01-29T14:04:10.178Z,19.77
2023-01-29T14:06:42.330Z,18.10
2023-01-29T14:09:35.225Z,18.50
2023-01-29T14:12:03.098Z,20.40
2023-01-29T14:15:06.143Z,20.75
2023-01-29T14:17:33.764Z,18.90
2023-01-29T14:20:15.995Z,21.45
2023-01-29T14:22:44.306Z,21.05
2023-01-29T14:25:18.787Z,19.65
2023-01-29T14:27:48.753Z,21.52
2023-01-29T14:30:19.326Z,21.13
2023-01-29T14:32:49.774Z,21.33
2023-01-29T14:35:21.635Z,21.25
2023-01-29T14:37:51.591Z,21.80
2023-01-29T14:40:22.919Z,20.38
2023-01-29T14:42:59.774Z,18.42
2023-01-29T14:45:29.371Z,19.50
2023-01-29T14:48:03.341Z,20.33
2023-01-29T14:50:47.946Z,18.80
2023-01-29T14:53:45.281Z,19.23
2023-01-29T14:56:16.850Z,19.38
2023-01-29T14:58:47.102Z,20.35
2023-01-29T15:01:24.431Z,20.35
2023-01-29T15:03:54.337Z,20.20
2023-01-29T15:06:30.072Z,21.05
2023-01-29T15:09:04.967Z,21.92
2023-01-29T15:11:38.486Z,21.15
2023-01-29T15:14:23.998Z,21.85
2023-01-29T15:17:03.127Z,22.27
2023-01-29T15:19:36.232Z,21.00
2023-01-29T15:22:07.954Z,21.75
2023-01-29T15:24:36.020Z,23.70
2023-01-29T15:27:04.081Z,23.90
2023-01-29T15:29:31.836Z,22.00
2023-01-29T15:31:59.908Z,23.52
2023-01-29T15:34:27.814Z,24.13
2023-01-29T15:36:55.328Z,23.88
2023-01-29T15:39:26.961Z,22.73
2023-01-29T15:42:12.909Z,23.63
2023-01-29T15:44:46.078Z,22.85
2023-01-29T15:47:15.163Z,29.00
2023-01-29T15:49:43.320Z,25.05
2023-01-29T15:52:18.942Z,24.80
2023-01-29T15:54:48.443Z,23.65
2023-01-29T15:57:22.487Z,22.23
2023-01-29T15:59:52.079Z,22.33
2023-01-29T16:02:22.677Z,23.20
2023-01-29T16:04:50.460Z,23.17
2023-01-29T16:07:18.085Z,22.73
2023-01-29T16:09:45.890Z,24.15
2023-01-29T16:12:15.212Z,24.13
2023-01-29T16:14:44.151Z,23.35
2023-01-29T16:17:23.313Z,21.10
2023-01-29T16:19:57.194Z,22.05
2023-01-29T16:22:25.940Z,21.60
2023-01-29T16:24:54.101Z,23.48
2023-01-29T16:27:26.028Z,21.23
2023-01-29T16:29:53.769Z,22.90
2023-01-29T16:32:21.525Z,22.20
2023-01-29T16:34:52.084Z,23.02
2023-01-29T16:37:23.415Z,22.58
2023-01-29T16:39:53.317Z,23.15
2023-01-29T16:42:25.187Z,22.70
2023-01-29T16:44:55.507Z,23.50
2023-01-29T16:47:32.643Z,20.88
2023-01-29T16:50:02.084Z,22.88
2023-01-29T16:52:31.597Z,19.90
2023-01-29T16:55:16.800Z,21.58
2023-01-29T16:57:50.992Z,19.95
2023-01-29T17:00:22.772Z,22.98
2023-01-29T17:02:53.370Z,23.13
2023-01-29T17:05:24.592Z,21.15
2023-01-29T17:07:52.502Z,22.35
2023-01-29T17:10:22.402Z,20.20
2023-01-29T17:12:58.226Z,21.27
2023-01-29T17:15:31.666Z,20.25
2023-01-29T17:18:00.474Z,19.17
2023-01-29T17:20:28.599Z,19.52
2023-01-29T17:22:57.557Z,19.88
2023-01-29T17:25:25.374Z,19.80
2023-01-29T17:27:54.317Z,19.83
2023-01-29T17:30:24.569Z,20.83
2023-01-29T17:32:52.138Z,20.00
2023-01-29T17:35:21.445Z,20.33
2023-01-29T17:37:49.154Z,18.75
2023-01-29T17:40:30.723Z,20.35
2023-01-29T17:42:59.784Z,18.02
2023-01-29T17:45:27.534Z,19.35
2023-01-29T17:47:55.147Z,19.33
2023-01-29T17:50:25.537Z,19.33
2023-01-29T17:52:53.819Z,19.70
2023-01-29T17:55:22.012Z,19.73
2023-01-29T17:57:49.639Z,19.38
2023-01-29T18:00:21.310Z,20.73
2023-01-29T18:02:49.180Z,20.98
2023-01-29T18:05:18.253Z,21.30
2023-01-29T18:07:47.642Z,20.83
2023-01-29T18:10:18.417Z,20.60
2023-01-29T18:12:46.304Z,20.33
2023-01-29T18:15:15.267Z,21.23
2023-01-29T18:17:45.065Z,20.30
2023-01-29T18:20:22.647Z,20.98
2023-01-29T18:22:50.541Z,21.40
2023-01-29T18:25:18.950Z,22.13
2023-01-29T18:27:47.489Z,20.85
2023-01-29T18:30:16.570Z,21.10
2023-01-29T18:32:47.393Z,20.38
2023-01-29T18:35:15.237Z,20.17
2023-01-29T18:37:42.922Z,20.63
2023-01-29T18:40:13.876Z,22.73
2023-01-29T18:42:41.773Z,20.77
2023-01-29T18:45:09.935Z,23.00
2023-01-29T18:47:37.508Z,20.35
2023-01-29T18:50:08.042Z,20.60
2023-01-29T18:52:35.639Z,20.65
2023-01-29T18:55:03.265Z,21.65
2023-01-29T18:58:26.349Z,20.95
2023-01-29T19:00:19.174Z,20.88
2023-01-29T19:02:46.732Z,23.33
2023-01-29T19:05:17.340Z,22.58
2023-01-29T19:07:45.165Z,24.05
2023-01-29T19:10:15.708Z,24.30
2023-01-29T19:12:43.381Z,23.58
2023-01-29T19:15:12.020Z,25.13
2023-01-29T19:17:39.808Z,24.25
2023-01-29T19:20:09.572Z,24.10
2023-01-29T19:22:38.418Z,24.65
2023-01-29T19:25:06.703Z,25.25
2023-01-29T19:27:34.406Z,25.23
2023-01-29T19:30:02.068Z,25.48
2023-01-29T19:32:30.092Z,26.65
2023-01-29T19:34:58.242Z,26.35
2023-01-29T19:37:26.085Z,25.88
2023-01-29T19:39:55.098Z,28.15
2023-01-29T19:42:22.681Z,27.55
2023-01-29T19:44:51.018Z,26.77
2023-01-29T19:47:18.692Z,26.90
2023-01-29T19:49:46.363Z,28.02
2023-01-29T19:52:49.907Z,28.33
2023-01-29T19:55:21.219Z,27.00
2023-01-29T19:57:49.160Z,27.58
2023-01-29T20:00:18.378Z,26.88
2023-01-29T20:02:46.037Z,27.90
2023-01-29T20:05:13.735Z,27.13
2023-01-29T20:07:42.390Z,26.33
2023-01-29T20:10:17.108Z,28.70
2023-01-29T20:12:47.111Z,27.92
2023-01-29T20:15:15.467Z,27.10
2023-01-29T20:17:43.537Z,26.27
2023-01-29T20:20:11.968Z,26.38
2023-01-29T20:22:39.504Z,26.98
2023-01-29T20:25:07.890Z,28.10
2023-01-29T20:27:35.515Z,29.63
2023-01-29T20:30:05.045Z,28.48
2023-01-29T20:32:32.938Z,27.73
2023-01-29T20:35:00.523Z,29.20
2023-01-29T20:37:28.089Z,29.20
2023-01-29T20:39:55.815Z,26.65
2023-01-29T20:42:23.441Z,29.08
2023-01-29T20:44:50.968Z,28.33
2023-01-29T20:47:19.833Z,28.65
2023-01-29T20:49:47.553Z,28.77
2023-01-29T20:52:15.100Z,31.05
2023-01-29T20:54:42.672Z,28.73
2023-01-29T20:57:10.503Z,25.48
2023-01-29T20:59:38.036Z,26.08
2023-01-29T21:02:05.658Z,29.63
2023-01-29T21:04:34.480Z,26.67
2023-01-29T21:07:02.108Z,28.38
2023-01-29T21:09:29.713Z,29.20
2023-01-29T21:11:57.359Z,28.60
2023-01-29T21:14:24.936Z,28.80
2023-01-29T21:16:52.659Z,28.63
2023-01-29T21:19:20.337Z,29.88
2023-01-29T21:21:49.334Z,29.75
2023-01-29T21:24:18.951Z,27.95
2023-01-29T21:26:46.880Z,29.17
2023-01-29T21:29:14.963Z,29.83
2023-01-29T21:31:43.093Z,29.58
2023-01-29T21:34:10.679Z,28.38
2023-01-29T21:36:38.601Z,27.60
2023-01-29T21:39:17.325Z,27.60
2023-01-29T21:42:02.649Z,27.02
2023-01-29T21:44:30.224Z,26.83
2023-01-29T21:46:57.979Z,27.50
2023-01-29T21:49:26.995Z,26.67
2023-01-29T21:51:54.621Z,26.58
2023-01-29T21:54:23.458Z,28.92
2023-01-29T21:56:50.997Z,27.92
2023-01-29T21:59:18.545Z,28.55
2023-01-29T22:01:46.123Z,27.38
2023-01-29T22:04:15.662Z,25.10
2023-01-29T22:06:43.358Z,27.77
2023-01-29T22:09:10.929Z,26.48
2023-01-29T22:11:41.638Z,25.63
2023-01-29T22:14:09.347Z,26.60
2023-01-29T22:16:37.067Z,26.33
2023-01-29T22:19:04.758Z,26.02
2023-01-29T22:21:34.464Z,27.63
2023-01-29T22:24:03.506Z,26.73
2023-01-29T22:26:32.099Z,26.38
2023-01-29T22:29:01.002Z,25.83
2023-01-29T22:31:28.676Z,27.30
2023-01-29T22:33:56.369Z,25.92
2023-01-29T22:36:23.937Z,25.50
2023-01-29T22:38:51.545Z,26.45
2023-01-29T22:41:19.107Z,24.92
2023-01-29T22:43:46.814Z,27.77
2023-01-29T22:46:15.937Z,25.23
2023-01-29T22:48:43.548Z,24.75
2023-01-29T22:51:11.704Z,25.95
2023-01-29T22:53:40.506Z,28.88
2023-01-29T22:56:09.206Z,28.00
2023-01-29T22:58:36.923Z,26.17
2023-01-29T23:01:05.204Z,27.77
2023-01-29T23:03:34.099Z,26.42
2023-01-29T23:06:02.010Z,26.15
2023-01-29T23:08:29.713Z,28.42
2023-01-29T23:11:13.648Z,24.90
2023-01-29T23:13:42.341Z,25.92
2023-01-29T23:16:10.035Z,26.23
2023-01-29T23:18:39.367Z,26.23
2023-01-29T23:21:07.269Z,26.73
2023-01-29T23:23:36.118Z,26.02
2023-01-29T23:26:23.663Z,25.92
2023-01-29T23:28:51.247Z,24.63
2023-01-29T23:31:18.999Z,24.70
2023-01-29T23:33:48.427Z,24.13
2023-01-29T23:36:15.989Z,23.65
2023-01-29T23:38:43.490Z,24.88
2023-01-29T23:41:11.043Z,26.25
2023-01-29T23:43:38.669Z,25.08
2023-01-29T23:46:06.540Z,24.27
2023-01-29T23:48:35.228Z,24.52
2023-01-29T23:51:04.323Z,25.70
2023-01-29T23:53:31.883Z,24.35
2023-01-29T23:56:00.590Z,24.02
2023-01-29T23:58:29.575Z,24.55
